Airfield :
LOGIN :

Register | Disclaimer

   EN    FR    IT 

 










Legend :    VFR   Marginal VFR   IFR   Intensive IFR   Very Intensive IFR
Visi :
Ceiling :
>= 8 km
>= 3000ft
5 to 8 km
1000 to 3000 ft
1500m to 5 km
500 to 1000 ft
800 to 1500m
200 to 500 ft
< 800m
< 200 ft
Symbols :   Thunderstorms  Fog  Heavy snow  Heavy precipitations  Wind > 20 kt
SIGMETs :     Misc.  Thunderstorms  Icing  Turbulence  Mountain Waves  Volcanic Ashes







- Airport Elevation : 220 ft
- IATA code : CWL
- Download approach charts


EGFF - Cardiff Rhoose

CURRENT METAR :
  • 250320Z AUTO 09014KT 9999 -RA OVC011/// //////TCU 09/08 Q0991

EXPIRED METARs :
  • 250250Z AUTO 08010KT 7000 -RA BKN013/// OVC037/// //////TCU 09/08 Q0991
  • 250220Z AUTO 09011KT 9999 -RA SCT013 OVC018 09/07 Q0992
  • 250150Z AUTO 10013KT 9999 BKN020 10/07 Q0992
  • 250120Z AUTO 11014KT 9999 BKN044 09/08 Q0993
  • 250050Z AUTO 11012KT 9999 SCT043 09/08 Q0993

TAF AMD TAF EGFF
Valid from the 25 at 03:00 until the 26 at 00:00 UTC


250330Z 2503/2524 10012KT 9999 FEW007 SCT030
TEMPO 2503/2507 7000 SHRA BKN007
PROB30 2503/2506 4000 +SHRA
BECMG 2506/2509 18012KT
TEMPO 2507/2520 7000 SHRA
PROB30
TEMPO 2509/2518 20017G27KT 4000 +SHRAGS BKN014 BKN025CB
ATIS : +44 1446 729 319
No reported NOTAMs for that airfield.



MET'MAP, your aeronautical weather chart ! - Copyright ORBIFLY December 2007 - Disclaimer

ORBIFLY MET'MAP TEAM :

Programming & Development : Alexandra Zaïnal
Concept & Development : Baudouin d'Aumeries
Co-Development & Prog : Marc-Olivier Méhu
Technical & hardware support : Manuel Goepfert

Contact : metmap@orbifly.com




SOURCES & CREDITS :

   NOAA